Time;durP1;ratioP1;P1;durP2;ratioP2;P2;SDS_P1;SDS_P2;PMS_P1;PMS_P2;Temp;Humidity;BMP_temperature;BMP_pressure;BME280_temperature;BME280_humidity;BME280_pressure;Samples;Min_cycle;Max_cycle;Signal;HPM_P1;HPM_P2
2023/01/06 00:01:11;;;;;;;25.40;13.93;;;12.10;90.50;;;14.61;63.95;101605.09;5024826;28;20195;-54
2023/01/06 00:03:38;;;;;;;27.77;13.70;;;12.10;90.50;;;14.59;64.53;101606.25;5014123;28;20221;-53
2023/01/06 00:06:11;;;;;;;25.57;14.93;;;12.10;90.60;;;14.55;64.76;101597.00;5013541;28;20187;-55
2023/01/06 00:08:39;;;;;;;27.50;15.37;;;12.10;90.70;;;14.53;64.91;101609.59;5027051;28;20194;-53
2023/01/06 00:11:07;;;;;;;27.43;15.37;;;12.00;90.70;;;14.52;65.04;101602.69;5033520;28;20194;-54
2023/01/06 00:13:36;;;;;;;25.97;14.97;;;12.00;90.70;;;14.55;64.72;101597.84;5034099;28;20616;-53
2023/01/06 00:16:05;;;;;;;23.40;15.33;;;12.00;90.70;;;14.55;64.73;101600.47;5033867;28;20202;-53
2023/01/06 00:18:32;;;;;;;25.67;17.00;;;12.00;90.80;;;14.56;64.83;101594.19;5017175;28;20211;-55
2023/01/06 00:21:00;;;;;;;27.87;15.67;;;12.00;90.90;;;14.58;64.50;101592.19;5013853;28;20195;-54
2023/01/06 00:23:27;;;;;;;29.93;16.77;;;12.00;90.90;;;14.57;64.96;101598.47;5013595;28;20556;-55
2023/01/06 00:25:55;;;;;;;29.07;16.80;;;12.00;90.90;;;14.57;65.12;101593.19;5013431;28;20206;-54
2023/01/06 00:28:22;;;;;;;28.87;15.83;;;12.00;91.00;;;14.57;64.95;101593.19;5013512;28;20191;-56
2023/01/06 00:30:50;;;;;;;29.53;16.63;;;12.00;91.00;;;14.56;65.00;101588.06;5013322;28;20245;-53
2023/01/06 00:33:17;;;;;;;28.97;17.17;;;12.00;91.00;;;14.57;65.14;101587.06;5014562;28;20362;-53
2023/01/06 00:35:44;;;;;;;29.03;15.97;;;12.00;91.00;;;14.56;64.99;101586.25;5029125;28;20194;-54
2023/01/06 00:38:11;;;;;;;32.57;17.13;;;12.00;91.00;;;14.51;65.28;101587.78;5032768;28;20209;-53
2023/01/06 00:40:38;;;;;;;26.17;15.27;;;12.00;91.00;;;14.48;65.18;101578.34;5034342;28;20218;-55
2023/01/06 00:43:05;;;;;;;31.10;17.97;;;12.00;91.00;;;14.44;65.47;101577.09;5034899;28;20288;-55
2023/01/06 00:45:32;;;;;;;29.63;18.70;;;12.00;91.00;;;14.45;65.59;101578.75;5034063;28;20221;-54
2023/01/06 00:48:00;;;;;;;27.80;18.27;;;12.00;91.00;;;14.45;65.41;101577.91;5033088;28;20195;-55
2023/01/06 00:50:27;;;;;;;29.87;17.27;;;12.00;91.10;;;14.51;65.46;101575.34;5025755;28;20667;-54
2023/01/06 00:52:54;;;;;;;34.17;19.13;;;12.00;91.00;;;14.57;65.33;101574.63;5013701;28;20217;-53
2023/01/06 00:55:21;;;;;;;27.63;17.83;;;12.00;91.10;;;14.62;64.99;101569.63;5013641;28;20191;-54
2023/01/06 00:57:51;;;;;;;32.07;17.70;;;12.00;91.10;;;14.65;64.84;101558.66;5013383;28;20549;-53
2023/01/06 01:00:19;;;;;;;33.63;20.10;;;12.10;91.10;;;14.65;64.88;101563.97;5026655;28;20215;-55
2023/01/06 01:02:47;;;;;;;29.97;18.97;;;12.00;91.00;;;14.59;65.30;101564.69;5037017;28;20702;-53
2023/01/06 01:05:15;;;;;;;29.93;18.03;;;12.00;91.00;;;14.62;64.66;101563.53;5037103;28;20289;-52
2023/01/06 01:07:42;;;;;;;26.83;19.10;;;12.10;91.00;;;14.64;64.69;101564.94;5028240;28;20524;-55
2023/01/06 01:10:09;;;;;;;31.37;18.90;;;12.10;91.00;;;14.67;65.21;101556.66;5042908;28;20265;-55
2023/01/06 01:12:36;;;;;;;31.87;18.50;;;12.10;91.00;;;14.67;64.90;101551.34;5036530;28;20202;-54
2023/01/06 01:15:04;;;;;;;32.67;19.97;;;12.10;91.00;;;14.70;64.96;101560.78;5036589;28;20944;-53
2023/01/06 01:17:31;;;;;;;36.27;20.50;;;12.10;91.00;;;14.70;65.07;101551.00;5036541;28;20194;-53
2023/01/06 01:19:59;;;;;;;28.20;18.30;;;12.20;91.00;;;14.75;64.90;101559.22;5036131;28;20281;-55
2023/01/06 01:22:29;;;;;;;36.43;20.77;;;12.20;91.10;;;14.75;65.06;101553.09;5032577;28;20188;-54
2023/01/06 01:24:57;;;;;;;34.50;20.17;;;12.20;91.00;;;14.77;64.77;101545.78;5016530;28;20274;-54
2023/01/06 01:27:24;;;;;;;37.03;20.10;;;12.20;91.00;;;14.78;64.77;101547.44;5016835;28;20191;-53
2023/01/06 01:29:51;;;;;;;26.23;19.23;;;12.20;91.00;;;14.80;64.83;101554.22;5016688;28;20290;-53
2023/01/06 01:32:18;;;;;;;32.20;19.63;;;12.20;91.00;;;14.83;64.91;101548.53;5035052;28;20695;-53
2023/01/06 01:34:45;;;;;;;33.33;20.13;;;12.20;91.00;;;14.85;64.99;101541.25;5036370;28;20187;-54
2023/01/06 01:37:12;;;;;;;30.73;18.17;;;12.20;91.00;;;14.86;64.60;101540.22;5036104;28;20209;-55
2023/01/06 01:39:40;;;;;;;31.00;21.17;;;12.20;90.90;;;14.88;64.79;101548.81;5026227;28;20726;-53
2023/01/06 01:42:15;;;;;;;27.53;18.87;;;12.30;91.00;;;14.87;64.56;101536.56;5016357;28;20198;-53
2023/01/06 01:45:04;;;;;;;33.33;21.87;;;12.30;91.00;;;14.85;64.45;101538.59;5016884;28;20250;-54
2023/01/06 01:47:43;;;;;;;33.43;21.27;;;12.30;91.10;;;14.87;64.70;101541.06;5016280;28;20218;-53
2023/01/06 01:50:21;;;;;;;32.00;21.53;;;12.30;91.00;;;14.87;64.80;101541.88;5016049;28;20265;-53
2023/01/06 01:52:53;;;;;;;33.17;20.90;;;12.30;91.00;;;14.89;64.80;101545.16;5016514;28;20183;-52
2023/01/06 01:55:25;;;;;;;33.67;21.83;;;12.30;91.10;;;14.90;64.84;101536.19;5017886;28;20644;-53
2023/01/06 01:58:01;;;;;;;34.97;21.53;;;12.30;91.10;;;14.93;64.84;101535.84;5016573;28;20191;-55
2023/01/06 02:00:28;;;;;;;29.97;19.97;;;12.30;91.10;;;14.93;65.00;101531.56;5028653;28;20210;-54
2023/01/06 02:02:56;;;;;;;35.47;22.03;;;12.30;91.10;;;14.89;65.12;101539.88;5034693;28;20210;-53
2023/01/06 02:05:27;;;;;;;31.03;20.70;;;12.40;91.30;;;14.89;65.23;101534.56;5036119;28;20191;-54
2023/01/06 02:07:57;;;;;;;30.87;22.83;;;12.30;91.20;;;14.90;65.26;101530.09;5035670;28;20555;-55
2023/01/06 02:10:25;;;;;;;28.57;21.53;;;12.30;91.30;;;14.92;65.32;101530.72;5035215;28;20225;-53
2023/01/06 02:12:56;;;;;;;29.40;20.83;;;12.30;91.30;;;14.95;65.16;101530.38;5034484;28;20201;-52
2023/01/06 02:15:26;;;;;;;30.43;20.50;;;12.30;91.30;;;14.95;65.15;101522.41;5037347;28;20194;-51
2023/01/06 02:18:47;;;;;;;30.33;21.10;;;12.40;91.40;;;14.88;65.56;101526.81;5038094;28;20202;-53
2023/01/06 02:21:53;;;;;;;35.00;21.83;;;12.40;91.50;;;14.85;65.58;101505.97;4975737;28;20268;-53
2023/01/06 02:25:01;;;;;;;33.37;21.87;;;12.40;91.50;;;14.85;65.70;101506.78;5043593;28;20224;-53
2023/01/06 02:28:20;;;;;;;29.80;19.43;;;12.40;91.50;;;14.87;65.84;101507.41;5025048;28;20198;-54
2023/01/06 02:31:29;;;;;;;27.43;19.50;;;12.40;91.40;;;14.93;65.54;101507.69;5035514;28;20210;-53
2023/01/06 02:34:06;;;;;;;28.07;18.63;;;12.40;91.40;;;15.04;65.19;101502.75;5035642;28;20195;-56
2023/01/06 02:36:44;;;;;;;24.43;17.37;;;12.40;91.40;;;15.11;64.87;101500.16;5035494;28;20262;-53
2023/01/06 02:39:29;;;;;;;24.10;18.67;;;12.50;91.40;;;15.16;64.91;101492.47;5033219;28;20256;-52
2023/01/06 02:42:11;;;;;;;26.30;18.53;;;12.50;91.40;;;15.18;64.71;101490.47;5035381;28;20636;-54
2023/01/06 02:44:52;;;;;;;26.40;17.23;;;12.50;91.30;;;15.14;64.76;101483.91;5035175;28;20226;-52
2023/01/06 02:47:34;;;;;;;23.03;16.70;;;12.60;91.20;;;15.09;64.73;101475.66;5034860;28;20194;-54
2023/01/06 02:50:17;;;;;;;21.97;15.97;;;12.50;91.10;;;15.14;65.00;101478.59;5014844;28;20207;-53
2023/01/06 02:52:54;;;;;;;19.03;13.53;;;12.60;91.10;;;15.22;64.48;101481.13;5015084;28;20187;-55
2023/01/06 02:55:31;;;;;;;19.23;14.13;;;12.60;91.10;;;15.19;64.69;101476.22;5015046;28;20198;-55
2023/01/06 02:58:08;;;;;;;18.07;14.73;;;12.60;91.00;;;15.24;64.38;101479.09;5014792;28;20198;-54
2023/01/06 03:00:42;;;;;;;17.60;14.37;;;12.60;91.00;;;15.25;64.25;101470.16;5027931;28;20218;-56
2023/01/06 03:03:16;;;;;;;17.33;14.03;;;12.60;90.90;;;15.28;64.36;101462.66;5033634;28;20213;-55
2023/01/06 03:05:47;;;;;;;19.47;13.23;;;12.60;90.90;;;15.27;63.96;101462.81;5033954;28;20194;-57
2023/01/06 03:08:23;;;;;;;18.57;13.40;;;12.70;90.90;;;15.19;64.37;101458.44;5030037;28;20254;-54
2023/01/06 03:10:53;;;;;;;16.17;13.20;;;12.70;90.90;;;15.18;64.48;101448.03;5014987;28;20211;-56
2023/01/06 03:13:31;;;;;;;15.93;12.60;;;12.70;90.80;;;15.10;64.67;101446.31;5013963;28;20211;-53
2023/01/06 03:15:59;;;;;;;14.50;11.10;;;12.70;90.80;;;15.20;64.21;101443.34;5014601;28;20178;-52
2023/01/06 03:18:28;;;;;;;17.10;12.50;;;12.70;90.80;;;15.25;64.45;101438.31;5014109;28;20191;-54
2023/01/06 03:21:00;;;;;;;16.63;12.67;;;12.70;90.80;;;15.29;64.21;101439.56;5014447;28;20211;-54
2023/01/06 03:23:27;;;;;;;16.10;11.77;;;12.70;90.80;;;15.30;64.35;101427.97;5020796;28;20207;-52
2023/01/06 03:25:54;;;;;;;15.73;12.30;;;12.70;90.80;;;15.33;64.19;101424.94;5017232;28;20603;-53
2023/01/06 03:28:21;;;;;;;19.67;13.13;;;12.70;90.80;;;15.32;64.35;101431.25;5013977;28;20202;-54
2023/01/06 03:31:03;;;;;;;17.17;13.20;;;12.80;90.80;;;15.28;64.27;101422.88;5014665;28;20215;-54
2023/01/06 03:33:40;;;;;;;17.50;13.90;;;12.70;90.80;;;15.24;64.43;101424.22;5014225;28;20203;-52
2023/01/06 03:36:19;;;;;;;21.07;13.33;;;12.70;90.80;;;15.25;64.27;101422.41;5014259;28;20270;-54
2023/01/06 03:39:00;;;;;;;16.57;12.90;;;12.70;90.80;;;15.29;64.26;101418.34;5013867;28;20237;-56
2023/01/06 03:44:34;;;;;;;14.07;11.50;;;12.70;90.80;;;15.29;64.01;101423.66;5034029;28;20198;-54
2023/01/06 03:47:12;;;;;;;14.83;12.40;;;12.70;90.80;;;15.30;64.10;101415.53;5034128;28;20189;-54
2023/01/06 03:49:54;;;;;;;15.50;12.00;;;12.70;90.80;;;15.32;64.02;101412.69;5033419;28;20229;-55
2023/01/06 03:52:29;;;;;;;16.80;12.17;;;12.70;90.70;;;15.37;63.95;101418.25;5034042;28;20198;-55
2023/01/06 03:55:04;;;;;;;12.97;11.67;;;12.70;90.70;;;15.38;63.98;101419.91;5032991;28;20189;-53
2023/01/06 03:57:36;;;;;;;15.93;12.03;;;12.70;90.60;;;15.38;63.84;101420.69;5033616;28;20182;-53
2023/01/06 04:00:09;;;;;;;14.80;10.77;;;12.80;90.60;;;15.39;63.84;101408.25;5032634;28;20687;-52
2023/01/06 04:02:39;;;;;;;12.93;11.60;;;12.80;90.60;;;15.40;63.50;101401.97;5033379;28;20179;-55
2023/01/06 04:05:12;;;;;;;13.73;10.60;;;12.70;90.50;;;15.35;63.52;101401.69;5033375;28;20194;-54
2023/01/06 04:07:42;;;;;;;12.07;8.70;;;12.80;90.40;;;15.39;63.38;101400.31;5033239;28;20198;-55
2023/01/06 04:10:11;;;;;;;10.27;8.47;;;12.80;90.40;;;15.46;63.33;101387.94;5032174;28;20210;-54
2023/01/06 04:12:39;;;;;;;10.83;9.23;;;12.80;90.50;;;15.35;63.14;101385.78;5013550;28;20193;-53
2023/01/06 04:15:10;;;;;;;9.07;8.17;;;12.80;90.20;;;15.31;63.22;101379.19;5013669;28;20194;-53
2023/01/06 04:17:38;;;;;;;9.97;8.37;;;12.80;90.20;;;15.36;63.13;101377.63;5013403;28;20678;-53
2023/01/06 04:20:12;;;;;;;9.87;8.43;;;12.80;90.10;;;15.35;62.96;101370.69;5023303;28;20580;-53
2023/01/06 04:22:39;;;;;;;10.30;8.27;;;12.80;90.00;;;15.28;62.65;101359.22;5031720;28;20191;-55
2023/01/06 04:25:07;;;;;;;10.40;8.00;;;12.80;89.90;;;15.15;63.38;101352.94;5031138;28;20601;-55
2023/01/06 04:27:34;;;;;;;11.37;7.87;;;12.70;89.60;;;15.17;63.02;101364.16;5032834;28;20202;-56
2023/01/06 04:30:01;;;;;;;10.77;8.70;;;12.70;89.60;;;15.19;62.84;101359.53;5032639;28;20206;-56
2023/01/06 04:32:28;;;;;;;13.30;8.70;;;12.70;89.50;;;15.23;62.96;101358.13;5033217;28;20214;-54
2023/01/06 04:34:55;;;;;;;10.90;8.23;;;12.80;89.60;;;15.30;62.69;101345.75;5031537;28;20202;-56
2023/01/06 04:37:24;;;;;;;12.07;9.57;;;12.80;89.60;;;15.25;62.84;101354.28;5022946;28;20203;-54
2023/01/06 04:39:51;;;;;;;11.47;8.20;;;12.80;89.40;;;15.30;62.73;101351.06;5013071;28;20215;-55
2023/01/06 04:42:18;;;;;;;10.87;8.13;;;12.80;89.30;;;15.39;62.38;101345.41;5013754;28;20660;-54
2023/01/06 04:44:44;;;;;;;11.93;9.80;;;12.80;89.30;;;15.35;62.49;101332.72;5013111;28;20191;-53
2023/01/06 04:47:12;;;;;;;11.70;10.17;;;12.80;89.20;;;15.34;62.34;101325.78;5013124;28;20214;-54
2023/01/06 04:49:39;;;;;;;11.07;9.13;;;12.80;89.10;;;15.33;62.49;101309.03;5029624;28;20698;-54
2023/01/06 04:52:07;;;;;;;12.83;11.53;;;12.80;89.10;;;15.22;62.73;101316.69;5031440;28;20200;-52
2023/01/06 04:54:36;;;;;;;12.53;11.23;;;12.80;89.30;;;15.19;63.04;101322.41;5032632;28;20562;-53
2023/01/06 04:57:03;;;;;;;11.83;10.63;;;12.80;89.40;;;15.21;62.98;101321.19;5032990;28;20217;-55
2023/01/06 04:59:30;;;;;;;12.37;11.17;;;12.80;89.50;;;15.12;63.13;101303.75;5032410;28;20214;-55
2023/01/06 05:01:57;;;;;;;12.67;11.30;;;12.80;89.50;;;15.11;63.43;101303.94;5033050;28;20690;-54
2023/01/06 05:04:24;;;;;;;13.13;10.90;;;12.70;89.40;;;15.16;63.25;101309.50;5032328;28;20199;-55
2023/01/06 05:06:51;;;;;;;14.20;11.90;;;12.70;89.50;;;15.23;62.72;101307.72;5033280;28;20547;-56
2023/01/06 05:09:17;;;;;;;13.30;12.00;;;12.70;89.60;;;15.26;62.82;101315.31;5032331;28;20214;-53
2023/01/06 05:11:46;;;;;;;13.30;12.00;;;12.70;89.60;;;15.25;62.47;101311.00;5032701;28;20546;-53
2023/01/06 05:14:13;;;;;;;12.40;11.10;;;12.70;89.60;;;15.25;63.00;101305.72;5032698;28;20205;-53
2023/01/06 05:16:40;;;;;;;12.63;11.37;;;12.70;89.50;;;15.28;62.83;101315.94;5032724;28;20225;-55
2023/01/06 05:19:07;;;;;;;14.77;12.63;;;12.70;89.50;;;15.28;62.72;101311.47;5021556;28;20254;-54
2023/01/06 05:21:34;;;;;;;13.03;11.70;;;12.70;89.40;;;15.27;62.43;101314.28;5012836;28;20215;-53
2023/01/06 05:24:01;;;;;;;12.83;11.13;;;12.80;89.40;;;15.24;62.68;101326.09;5013123;28;20214;-53
2023/01/06 05:26:28;;;;;;;12.73;10.90;;;12.80;89.30;;;15.23;62.81;101315.69;5012875;28;20191;-52
2023/01/06 05:28:56;;;;;;;12.00;10.80;;;12.70;89.20;;;15.30;62.24;101311.25;5016626;28;20222;-54
2023/01/06 05:31:24;;;;;;;12.27;11.07;;;12.80;89.30;;;15.37;62.52;101312.13;5032556;28;20240;-53
2023/01/06 05:33:51;;;;;;;12.00;10.67;;;12.80;89.20;;;15.39;61.99;101312.75;5031758;28;20286;-52
2023/01/06 05:36:18;;;;;;;12.73;11.43;;;12.80;89.00;;;15.37;61.90;101314.78;5032407;28;20194;-54
2023/01/06 05:38:51;;;;;;;11.47;9.60;;;12.80;88.90;;;15.35;62.09;101316.81;5031852;28;20206;-52
2023/01/06 05:41:18;;;;;;;12.00;10.57;;;12.80;88.80;;;15.34;62.29;101313.34;5032172;28;20225;-54
2023/01/06 05:43:45;;;;;;;10.40;9.33;;;12.80;88.80;;;15.38;62.38;101300.53;5032432;28;20217;-54
2023/01/06 05:46:13;;;;;;;11.97;9.80;;;12.80;88.80;;;15.35;62.42;101295.59;5031492;28;20583;-52
2023/01/06 05:48:41;;;;;;;10.07;9.13;;;12.80;88.70;;;15.33;62.14;101281.72;5026088;28;20198;-54
2023/01/06 05:51:10;;;;;;;11.20;10.00;;;12.80;89.30;;;15.31;62.24;101299.63;5040367;28;20219;-55
2023/01/06 05:53:40;;;;;;;13.80;8.57;;;12.80;88.60;;;15.33;62.06;101298.41;5035788;28;20212;-56
2023/01/06 05:56:10;;;;;;;10.17;9.17;;;12.80;88.60;;;15.31;62.18;101291.66;5035551;28;20190;-56
2023/01/06 05:58:41;;;;;;;10.90;9.80;;;12.80;88.60;;;15.25;62.12;101298.56;5035301;28;20193;-56
2023/01/06 06:01:17;;;;;;;9.27;8.37;;;12.80;88.50;;;15.18;62.29;101278.31;5034592;28;20706;-61
2023/01/06 06:03:45;;;;;;;9.93;9.03;;;12.80;88.50;;;15.16;62.63;101278.50;5034899;28;20183;-56
2023/01/06 06:06:13;;;;;;;9.77;8.40;;;12.80;88.50;;;15.18;61.87;101271.19;5035267;28;20205;-55
2023/01/06 06:08:40;;;;;;;9.07;7.87;;;12.80;88.50;;;15.27;62.28;101271.84;5034667;28;20840;-55
2023/01/06 06:11:10;;;;;;;9.77;8.80;;;12.80;88.60;;;15.28;61.79;101269.03;5035826;28;20187;-55
2023/01/06 06:13:37;;;;;;;8.43;7.63;;;12.70;88.20;;;15.23;61.97;101275.91;5035471;28;20283;-55
2023/01/06 06:16:07;;;;;;;9.83;8.30;;;12.70;88.00;;;15.22;61.93;101279.56;5036061;28;20269;-54
2023/01/06 06:18:41;;;;;;;7.60;6.77;;;12.70;87.90;;;15.31;61.75;101262.50;5036720;28;20237;-54
2023/01/06 06:21:10;;;;;;;8.97;8.17;;;12.80;88.00;;;15.25;61.33;101266.75;5035656;28;20205;-56
2023/01/06 06:23:37;;;;;;;9.00;7.27;;;12.80;87.70;;;15.20;61.67;101261.19;5035551;28;20194;-53
2023/01/06 06:26:04;;;;;;;8.30;6.43;;;12.80;87.60;;;15.24;61.40;101259.78;5035167;28;20214;-53
2023/01/06 06:28:32;;;;;;;8.43;7.63;;;12.80;87.60;;;15.21;61.29;101257.53;5034350;28;20253;-55
2023/01/06 06:31:04;;;;;;;10.20;6.37;;;12.80;87.40;;;15.27;61.32;101250.63;5034911;28;20515;-53
2023/01/06 06:33:31;;;;;;;8.27;5.93;;;12.80;87.30;;;15.33;61.42;101255.97;5034941;28;20225;-55
2023/01/06 06:36:00;;;;;;;7.77;5.87;;;12.80;87.30;;;15.27;60.87;101247.97;5035153;28;20587;-56
2023/01/06 06:38:28;;;;;;;6.87;6.27;;;12.80;87.90;;;15.25;61.15;101244.72;5034434;28;20190;-52
2023/01/06 06:40:55;;;;;;;6.37;5.77;;;12.80;87.00;;;15.23;61.27;101244.91;5034283;28;20214;-54
2023/01/06 06:43:22;;;;;;;6.40;5.80;;;12.80;86.80;;;15.19;61.21;101245.50;5020887;28;20563;-54
2023/01/06 06:45:49;;;;;;;5.53;5.07;;;12.80;86.80;;;15.25;61.54;101252.66;5014854;28;20234;-55
2023/01/06 06:48:16;;;;;;;4.90;4.53;;;12.80;86.80;;;15.28;61.04;101249.63;5020112;28;20198;-53
2023/01/06 06:50:43;;;;;;;4.67;4.20;;;12.80;86.70;;;15.30;60.94;101251.09;5034665;28;20702;-55
2023/01/06 06:53:12;;;;;;;4.50;4.10;;;12.80;86.60;;;15.36;60.85;101249.47;5034712;28;20202;-55
2023/01/06 06:55:39;;;;;;;4.27;3.87;;;12.80;86.60;;;15.34;60.86;101247.03;5034185;28;20193;-54
2023/01/06 06:58:06;;;;;;;4.63;4.17;;;12.80;86.50;;;15.29;60.67;101251.25;5033492;28;20213;-53
2023/01/06 07:00:33;;;;;;;4.83;4.37;;;12.80;86.40;;;15.26;60.64;101243.72;5034243;28;20401;-53
2023/01/06 07:03:00;;;;;;;5.17;3.97;;;12.80;86.40;;;15.33;60.73;101244.56;5020346;28;20201;-53
2023/01/06 07:05:27;;;;;;;5.47;3.87;;;12.90;86.30;;;15.29;60.59;101240.66;5014812;28;20188;-55
2023/01/06 07:07:54;;;;;;;7.67;5.17;;;12.90;86.20;;;15.33;60.50;101244.56;5021738;28;20578;-54
2023/01/06 07:10:22;;;;;;;4.13;3.73;;;12.90;86.20;;;15.39;60.29;101244.63;5027456;28;20273;-57
2023/01/06 07:12:49;;;;;;;5.10;3.43;;;12.90;86.10;;;15.36;60.45;101239.69;5014270;28;20660;-54
2023/01/06 07:15:16;;;;;;;4.20;3.40;;;12.90;86.00;;;15.34;60.30;101224.97;5014330;28;20237;-54
2023/01/06 07:17:43;;;;;;;4.70;2.83;;;12.90;85.90;;;15.40;60.26;101232.19;5013979;28;20202;-55
2023/01/06 07:20:12;;;;;;;3.30;2.90;;;12.90;85.80;;;15.38;60.04;101216.44;5014017;28;20211;-53
2023/01/06 07:22:40;;;;;;;3.43;2.67;;;12.90;85.60;;;15.38;60.18;101221.75;5013624;28;20655;-52
2023/01/06 07:25:08;;;;;;;3.73;2.40;;;12.90;85.70;;;15.44;60.06;101214.84;5027533;28;20198;-55
2023/01/06 07:27:37;;;;;;;3.30;2.80;;;13.00;85.70;;;15.45;60.07;101208.56;5034502;28;20200;-53
2023/01/06 07:30:05;;;;;;;4.63;2.90;;;12.90;85.60;;;15.49;59.66;101212.47;5033480;28;20589;-56
2023/01/06 07:32:32;;;;;;;4.33;2.43;;;12.90;85.50;;;15.48;59.72;101213.47;5033573;28;20195;-54
2023/01/06 07:34:59;;;;;;;3.13;2.33;;;12.90;85.30;;;15.42;59.75;101211.59;5033726;28;20243;-55
2023/01/06 07:37:26;;;;;;;2.93;2.37;;;12.90;85.10;;;15.40;59.48;101214.41;5033342;28;20206;-56
2023/01/06 07:39:53;;;;;;;2.70;2.00;;;13.00;85.20;;;15.31;59.76;101198.84;5014964;28;20214;-54
2023/01/06 07:42:20;;;;;;;2.90;2.20;;;12.90;84.80;;;15.35;59.60;101194.81;5014065;28;20219;-56
2023/01/06 07:44:48;;;;;;;2.30;1.90;;;13.00;84.80;;;15.43;59.41;101191.97;5014051;28;20306;-55
2023/01/06 07:47:15;;;;;;;3.03;1.73;;;12.90;84.70;;;15.51;59.07;101200.66;5013731;28;20200;-56
2023/01/06 07:49:42;;;;;;;4.53;2.10;;;13.00;85.60;;;15.48;59.30;101210.81;5031363;28;20210;-59
2023/01/06 07:52:09;;;;;;;2.83;1.90;;;12.90;84.60;;;15.49;59.10;101202.69;5033290;28;20248;-53
2023/01/06 07:54:36;;;;;;;3.10;1.80;;;13.00;84.50;;;15.42;59.04;101195.66;5033599;28;20191;-54
2023/01/06 07:57:06;;;;;;;4.63;1.93;;;12.90;84.20;;;15.26;59.54;101207.38;5033532;28;20644;-52
2023/01/06 07:59:33;;;;;;;3.07;1.80;;;12.90;84.40;;;15.27;59.82;101202.91;5031795;28;20230;-54
2023/01/06 08:02:02;;;;;;;2.40;1.77;;;13.00;84.70;;;15.34;59.57;101211.72;5033222;28;20225;-54
2023/01/06 08:04:29;;;;;;;2.43;1.87;;;13.00;84.70;;;15.34;59.42;101209.88;5032914;28;20540;-54
2023/01/06 08:06:56;;;;;;;5.73;2.10;;;13.00;84.90;;;15.31;59.70;101210.28;5028085;28;20191;-56
2023/01/06 08:09:22;;;;;;;3.70;1.90;;;13.00;84.90;;;15.26;60.27;101201.28;5032512;28;20265;-53
2023/01/06 08:11:49;;;;;;;2.67;1.80;;;13.00;84.90;;;15.14;60.24;101202.81;5033504;28;20198;-53
2023/01/06 08:14:16;;;;;;;3.27;1.97;;;12.90;84.80;;;15.13;60.21;101206.47;5033658;28;20583;-53
2023/01/06 08:16:43;;;;;;;3.57;2.03;;;12.90;85.00;;;15.17;60.32;101213.00;5033197;28;20191;-56
2023/01/06 08:19:12;;;;;;;4.60;1.90;;;12.90;84.90;;;15.15;60.31;101207.09;5033242;28;20214;-55
2023/01/06 08:21:55;;;;;;;3.13;2.10;;;12.90;84.80;;;15.14;60.19;101211.56;5015780;28;20234;-54
2023/01/06 08:24:32;;;;;;;4.60;3.27;;;12.90;84.90;;;15.16;60.52;101217.53;5014281;28;20671;-55
2023/01/06 08:26:58;;;;;;;3.23;2.10;;;12.90;85.00;;;15.16;60.38;101217.53;5032449;28;20198;-52
2023/01/06 08:29:25;;;;;;;2.90;2.17;;;12.80;85.00;;;15.16;60.50;101222.00;5033699;28;20671;-52
2023/01/06 08:31:53;;;;;;;4.87;2.37;;;12.90;85.30;;;14.98;61.26;101216.31;5033312;28;20187;-54
2023/01/06 08:34:36;;;;;;;4.23;1.73;;;12.80;85.60;;;15.06;60.96;101217.03;5027848;28;20202;-53
2023/01/06 08:37:03;;;;;;;3.40;2.37;;;12.80;85.60;;;15.06;61.14;101218.84;5033169;28;20206;-55
2023/01/06 08:39:30;;;;;;;5.37;2.33;;;12.80;85.80;;;14.98;61.40;101217.16;5033200;28;20233;-52
2023/01/06 08:41:57;;;;;;;2.10;1.87;;;12.80;86.10;;;15.04;61.41;101232.31;5033665;28;20217;-54
2023/01/06 08:44:24;;;;;;;6.63;2.90;;;12.80;86.20;;;15.12;61.23;101226.06;5033553;28;20194;-57
2023/01/06 08:46:51;;;;;;;3.83;1.97;;;12.80;86.50;;;15.16;61.19;101222.00;5033517;28;20496;-55
2023/01/06 08:49:18;;;;;;;3.87;1.97;;;12.80;86.50;;;15.17;61.29;101236.88;5028992;28;20747;-56
2023/01/06 08:51:47;;;;;;;2.40;2.13;;;12.70;87.00;;;15.13;61.57;101232.97;5033473;28;20198;-56
2023/01/06 08:54:14;;;;;;;4.03;2.60;;;12.70;87.10;;;15.06;62.04;101232.94;5033330;28;20190;-56
2023/01/06 08:56:43;;;;;;;2.70;2.07;;;12.70;87.50;;;15.03;62.06;101230.66;5032556;28;20194;-56
2023/01/06 08:59:14;;;;;;;4.33;2.40;;;12.70;87.80;;;14.89;62.92;101248.28;5030610;28;20215;-57
2023/01/06 09:01:43;;;;;;;2.77;2.50;;;12.70;88.30;;;14.89;63.01;101232.38;5023291;28;20233;-56
2023/01/06 09:04:11;;;;;;;3.17;2.87;;;12.70;88.40;;;14.95;62.92;101232.63;5032941;28;20246;-55
2023/01/06 09:06:41;;;;;;;4.77;3.10;;;12.60;88.30;;;15.02;62.70;101238.81;5028348;28;20194;-54
2023/01/06 09:09:13;;;;;;;5.03;4.30;;;12.60;88.50;;;15.10;62.33;101241.31;5024426;28;20575;-56
2023/01/06 09:11:42;;;;;;;4.87;3.40;;;12.60;89.40;;;15.15;62.46;101249.50;5027773;28;20206;-57
2023/01/06 09:14:12;;;;;;;4.00;2.53;;;12.60;88.80;;;14.96;63.02;101247.50;5044965;28;20206;-55
2023/01/06 09:16:39;;;;;;;2.40;2.20;;;12.60;89.20;;;14.93;63.35;101256.66;5014911;28;20705;-56
2023/01/06 09:19:09;;;;;;;2.77;2.37;;;12.60;88.90;;;14.99;63.07;101260.41;5012890;28;20652;-53
2023/01/06 09:21:36;;;;;;;4.23;2.30;;;12.60;89.10;;;15.07;62.75;101254.97;5031123;28;20242;-55
2023/01/06 09:24:04;;;;;;;2.93;2.63;;;12.60;89.20;;;15.13;62.72;101259.50;5035644;28;20209;-54
2023/01/06 09:26:33;;;;;;;4.40;2.53;;;12.60;89.30;;;15.07;63.18;101257.63;5025698;28;20660;-54
2023/01/06 09:29:00;;;;;;;3.10;2.00;;;12.60;89.80;;;15.10;63.15;101267.81;5016629;28;20215;-57
2023/01/06 09:31:29;;;;;;;2.73;2.23;;;12.60;89.80;;;15.16;62.87;101264.44;4999440;28;20702;-54
2023/01/06 09:33:56;;;;;;;3.63;2.00;;;12.60;89.90;;;15.20;62.84;101273.63;5024682;28;20206;-54
2023/01/06 09:36:23;;;;;;;3.30;2.10;;;12.60;90.00;;;15.20;62.82;101273.63;5030686;28;20195;-54
2023/01/06 09:38:50;;;;;;;2.53;2.20;;;12.60;90.00;;;15.24;62.84;101274.88;5024315;28;20241;-53
2023/01/06 09:41:59;;;;;;;2.27;2.07;;;12.60;90.00;;;15.24;63.05;101277.53;5033592;28;20211;-54
2023/01/06 09:44:30;;;;;;;3.83;2.37;;;12.70;90.00;;;15.29;62.83;101275.97;5020402;28;20199;-54
2023/01/06 09:47:00;;;;;;;2.57;1.97;;;12.70;89.90;;;15.34;62.93;101285.97;5015865;28;20174;-55
2023/01/06 09:49:38;;;;;;;2.07;1.90;;;12.70;89.90;;;15.37;62.61;101283.78;5032543;28;20337;-56
2023/01/06 09:52:16;;;;;;;3.63;1.53;;;12.70;89.90;;;15.46;62.47;101279.19;5015807;28;20202;-56
2023/01/06 09:54:52;;;;;;;1.60;1.50;;;12.80;90.00;;;15.54;62.30;101279.03;5028663;28;20203;-56
2023/01/06 09:57:29;;;;;;;1.83;1.70;;;12.80;89.90;;;15.59;62.15;101281.94;5031373;28;20615;-54
2023/01/06 10:00:01;;;;;;;3.27;1.50;;;12.80;89.80;;;15.62;61.88;101273.56;5025181;28;20238;-56
2023/01/06 10:02:34;;;;;;;3.33;1.70;;;12.80;89.70;;;15.50;62.49;101277.78;5034390;28;20220;-53
2023/01/06 10:05:12;;;;;;;1.90;1.80;;;12.90;89.60;;;15.57;62.50;101278.63;5032255;28;20200;-54
2023/01/06 10:07:49;;;;;;;1.90;1.70;;;12.90;89.60;;;15.56;61.94;101277.00;5034897;28;20198;-55
2023/01/06 10:10:27;;;;;;;2.40;1.90;;;12.90;89.20;;;15.63;61.92;101288.50;5021868;28;20298;-55
2023/01/06 10:13:26;;;;;;;2.23;1.70;;;13.00;90.00;;;15.73;61.36;101288.16;5032380;28;20260;-53
2023/01/06 10:16:08;;;;;;;1.90;1.80;;;13.00;89.10;;;15.75;61.59;101308.19;5033767;28;20195;-55
2023/01/06 10:18:53;;;;;;;2.70;2.20;;;13.00;88.70;;;15.86;61.31;101299.66;5035767;28;20218;-55
2023/01/06 10:21:30;;;;;;;2.20;2.07;;;13.10;88.80;;;16.05;61.31;101317.53;5025516;28;20568;-54
2023/01/06 10:24:19;;;;;;;2.63;1.90;;;13.20;89.20;;;16.30;60.73;101325.03;5024684;28;20202;-54